^^
Saratoga-Weather Station Historical Data
Daily Summary for November 5, 2021 Units:  Metric    English   Both
Daily Weekly Monthly Yearly Custom
  High: Low: Average:
Temperature: 11.1 °C 5.7 °C 8.1 °C
Dew Point: 7.1 °C 4.6 °C 6.2 °C
Humidity: 95% 72% 88%
Wind Speed: 14.5km/h 0km/h 2.5km/h
Wind Gust: 14.5km/h - -
Wind- - West
Pressure: 1028.8 hPa 1014.2 hPa -
Precipitation: 0.0 mm    
Historical Graphs
 
 
Tabular Data for November 5, 2021
Time Temperature Dew Point Pressure Wind Wind Speed Wind Gust Humidity Rainfall Rate (Hourly) solar
00:04 7.1 °C 6.4 °C 1014.2 hPa West 4.7 km/h 6.4 km/h 95% 0.0 mm 0 W/m2
00:09 7.1 °C 6.4 °C 1014.2 hPa West 3.2 km/h 4.8 km/h 95% 0.0 mm 0 W/m2
00:14 7.1 °C 6.4 °C 1014.2 hPa West 3.2 km/h 6.4 km/h 95% 0.0 mm 0 W/m2
00:19 7.1 °C 6.4 °C 1014.2 hPa WSW 4.7 km/h 8 km/h 95% 0.0 mm 0 W/m2
00:24 7.1 °C 6.4 °C 1014.6 hPa West 3.2 km/h 6.4 km/h 95% 0.0 mm 0 W/m2
00:29 7.1 °C 6.4 °C 1014.6 hPa WNW 6.4 km/h 8 km/h 95% 0.0 mm 0 W/m2
00:34 7.1 °C 6.4 °C 1014.6 hPa WNW 4.7 km/h 11.3 km/h 95% 0.0 mm 0 W/m2
00:39 7.1 °C 6.4 °C 1014.6 hPa West 4.7 km/h 9.7 km/h 95% 0.0 mm 0 W/m2
00:44 7.2 °C 6.5 °C 1014.6 hPa SW 3.2 km/h 9.7 km/h 95% 0.0 mm 0 W/m2
00:49 7.2 °C 6.5 °C 1014.6 hPa West 4.7 km/h 14.5 km/h 95% 0.0 mm 0 W/m2
00:54 7.2 °C 6.5 °C 1014.6 hPa WSW 7.9 km/h 12.9 km/h 95% 0.0 mm 0 W/m2
00:59 7.3 °C 6.6 °C 1014.9 hPa West 3.2 km/h 14.5 km/h 95% 0.0 mm 0 W/m2
01:04 7.3 °C 6.6 °C 1014.6 hPa WNW 9.7 km/h 11.3 km/h 95% 0.0 mm 0 W/m2
01:09 7.3 °C 6.6 °C 1014.9 hPa West 4.7 km/h 11.3 km/h 95% 0.0 mm 0 W/m2
01:14 7.4 °C 6.7 °C 1014.9 hPa West 4.7 km/h 9.7 km/h 95% 0.0 mm 0 W/m2
01:19 7.4 °C 6.7 °C 1014.9 hPa SW 3.2 km/h 4.8 km/h 95% 0.0 mm 0 W/m2
01:24 7.4 °C 6.7 °C 1014.9 hPa West 3.2 km/h 6.4 km/h 95% 0.0 mm 0 W/m2
01:29 7.4 °C 6.7 °C 1014.9 hPa WSW 4.7 km/h 6.4 km/h 95% 0.0 mm 0 W/m2
01:34 7.4 °C 6.7 °C 1014.9 hPa West 6.4 km/h 9.7 km/h 95% 0.0 mm 0 W/m2
01:39 7.4 °C 6.5 °C 1014.9 hPa West 9.7 km/h 11.3 km/h 94% 0.0 mm 0 W/m2
01:44 7.5 °C 6.6 °C 1014.9 hPa WNW 4.7 km/h 11.3 km/h 94% 0.0 mm 0 W/m2
01:49 7.6 °C 6.7 °C 1015.2 hPa WNW 6.4 km/h 9.7 km/h 94% 0.0 mm 0 W/m2
01:54 7.6 °C 6.7 °C 1015.2 hPa WNW 9.7 km/h 11.3 km/h 94% 0.0 mm 0 W/m2
01:59 7.6 °C 6.7 °C 1015.2 hPa West 6.4 km/h 8 km/h 94% 0.0 mm 0 W/m2
02:04 7.6 °C 6.7 °C 1015.2 hPa WSW 9.7 km/h 11.3 km/h 94% 0.0 mm 0 W/m2
02:09 7.7 °C 6.8 °C 1015.2 hPa West 11.1 km/h 14.5 km/h 94% 0.0 mm 0 W/m2
02:14 7.7 °C 6.8 °C 1015.2 hPa West 4.7 km/h 11.3 km/h 94% 0.0 mm 0 W/m2
02:19 7.7 °C 6.8 °C 1015.2 hPa WNW 14.5 km/h 14.5 km/h 94% 0.0 mm 0 W/m2
02:24 7.7 °C 6.8 °C 1015.2 hPa West 4.7 km/h 9.7 km/h 94% 0.0 mm 0 W/m2
02:29 7.7 °C 6.6 °C 1015.2 hPa West 4.7 km/h 9.7 km/h 93% 0.0 mm 0 W/m2
02:34 7.7 °C 6.6 °C 1015.2 hPa West 3.2 km/h 11.3 km/h 93% 0.0 mm 0 W/m2
02:39 7.7 °C 6.6 °C 1015.2 hPa SW 1.4 km/h 3.2 km/h 93% 0.0 mm 0 W/m2
02:44 7.7 °C 6.6 °C 1015.6 hPa WSW 6.4 km/h 11.3 km/h 93% 0.0 mm 0 W/m2
02:49 7.7 °C 6.6 °C 1015.6 hPa West 3.2 km/h 4.8 km/h 93% 0.0 mm 0 W/m2
02:54 7.7 °C 6.6 °C 1015.6 hPa West 4.7 km/h 6.4 km/h 93% 0.0 mm 0 W/m2
02:59 7.6 °C 6.5 °C 1015.6 hPa West 6.4 km/h 12.9 km/h 93% 0.0 mm 0 W/m2
03:04 7.6 °C 6.5 °C 1015.6 hPa WNW 11.1 km/h 12.9 km/h 93% 0.0 mm 0 W/m2
03:09 7.6 °C 6.5 °C 1015.6 hPa WNW 6.4 km/h 11.3 km/h 93% 0.0 mm 0 W/m2
03:14 7.6 °C 6.5 °C 1015.9 hPa WNW 11.1 km/h 11.3 km/h 93% 0.0 mm 0 W/m2
03:19 7.5 °C 6.4 °C 1015.9 hPa WSW 7.9 km/h 12.9 km/h 93% 0.0 mm 0 W/m2
03:24 7.5 °C 6.4 °C 1015.9 hPa NW 4.7 km/h 9.7 km/h 93% 0.0 mm 0 W/m2
03:29 7.4 °C 6.3 °C 1015.9 hPa Calm   12.9 km/h 93% 0.0 mm 0 W/m2
03:34 7.4 °C 6.3 °C 1016.3 hPa West 3.2 km/h 6.4 km/h 93% 0.0 mm 0 W/m2
03:39 7.3 °C 6.2 °C 1016.3 hPa WSW 3.2 km/h 4.8 km/h 93% 0.0 mm 0 W/m2
03:44 7.3 °C 6.2 °C 1016.3 hPa Calm   4.8 km/h 93% 0.0 mm 0 W/m2
03:49 7.3 °C 6.2 °C 1016.3 hPa Calm   4.8 km/h 93% 0.0 mm 0 W/m2
03:54 7.2 °C 6.1 °C 1016.3 hPa WNW 4.7 km/h 6.4 km/h 93% 0.0 mm 0 W/m2
03:59 7.2 °C 6.1 °C 1016.3 hPa West 3.2 km/h 6.4 km/h 93% 0.0 mm 0 W/m2
04:04 7.1 °C 6 °C 1016.3 hPa West 4.7 km/h 4.8 km/h 93% 0.0 mm 0 W/m2
04:09 7.1 °C 6.2 °C 1016.3 hPa West 6.4 km/h 6.4 km/h 94% 0.0 mm 0 W/m2
04:14 7.1 °C 6.2 °C 1016.3 hPa West 3.2 km/h 6.4 km/h 94% 0.0 mm 0 W/m2
04:19 7.1 °C 6.2 °C 1016.3 hPa West 3.2 km/h 6.4 km/h 94% 0.0 mm 0 W/m2
04:24 7.1 °C 6.2 °C 1016.6 hPa WNW 4.7 km/h 4.8 km/h 94% 0.0 mm 0 W/m2
04:29 7 °C 6.1 °C 1016.6 hPa Calm     94% 0.0 mm 0 W/m2
04:34 6.9 °C 6 °C 1016.6 hPa Calm   1.6 km/h 94% 0.0 mm 0 W/m2
04:39 6.9 °C 6 °C 1016.9 hPa Calm     94% 0.0 mm 0 W/m2
04:44 6.8 °C 5.9 °C 1016.9 hPa Calm     94% 0.0 mm 0 W/m2
04:49 6.8 °C 5.9 °C 1016.9 hPa WNW 1.4 km/h 3.2 km/h 94% 0.0 mm 0 W/m2
04:54 6.8 °C 5.9 °C 1016.9 hPa WNW 1.4 km/h 4.8 km/h 94% 0.0 mm 0 W/m2
04:59 6.8 °C 5.9 °C 1017.3 hPa WNW 3.2 km/h 3.2 km/h 94% 0.0 mm 0 W/m2
05:04 6.8 °C 6.1 °C 1017.3 hPa WNW 3.2 km/h 4.8 km/h 95% 0.0 mm 0 W/m2
05:09 6.9 °C 6.2 °C 1017.3 hPa WNW 4.7 km/h 9.7 km/h 95% 0.0 mm 0 W/m2
05:14 7 °C 6.3 °C 1017.3 hPa West 3.2 km/h 6.4 km/h 95% 0.0 mm 0 W/m2
05:19 7.1 °C 6.4 °C 1017.6 hPa West 3.2 km/h 4.8 km/h 95% 0.0 mm 0 W/m2
05:24 7.1 °C 6.2 °C 1017.6 hPa West 4.7 km/h 4.8 km/h 94% 0.0 mm 0 W/m2
05:29 7.1 °C 6.2 °C 1017.6 hPa West 4.7 km/h 6.4 km/h 94% 0.0 mm 0 W/m2
05:34 7.2 °C 6.3 °C 1017.6 hPa WNW 3.2 km/h 3.2 km/h 94% 0.0 mm 0 W/m2
05:39 7.2 °C 6.3 °C 1018.0 hPa West 3.2 km/h 4.8 km/h 94% 0.0 mm 0 W/m2
05:44 7.2 °C 6.3 °C 1018.0 hPa West 3.2 km/h 6.4 km/h 94% 0.0 mm 0 W/m2
05:49 7.2 °C 6.3 °C 1018.0 hPa West 1.4 km/h 6.4 km/h 94% 0.0 mm 0 W/m2
05:54 7.2 °C 6.3 °C 1018.0 hPa WSW 4.7 km/h 4.8 km/h 94% 0.0 mm 0 W/m2
05:59 7.2 °C 6.3 °C 1018.0 hPa WSW 3.2 km/h 9.7 km/h 94% 0.0 mm 0 W/m2
06:04 7.2 °C 6.3 °C 1018.0 hPa West 1.4 km/h 4.8 km/h 94% 0.0 mm 0 W/m2
06:09 7.2 °C 6.3 °C 1018.0 hPa WNW 1.4 km/h 8 km/h 94% 0.0 mm 0 W/m2
06:14 7.3 °C 6.4 °C 1018.3 hPa West 1.4 km/h 4.8 km/h 94% 0.0 mm 0 W/m2
06:19 7.3 °C 6.4 °C 1018.3 hPa West 4.7 km/h 4.8 km/h 94% 0.0 mm 0 W/m2
06:24 7.3 °C 6.4 °C 1018.3 hPa WNW 1.4 km/h 4.8 km/h 94% 0.0 mm 0 W/m2
06:29 7.3 °C 6.2 °C 1018.3 hPa WNW 1.4 km/h 3.2 km/h 93% 0.0 mm 0 W/m2
06:35 7.3 °C 6.2 °C 1018.6 hPa WNW 1.4 km/h 4.8 km/h 93% 0.0 mm 0 W/m2
06:40 7.3 °C 6.2 °C 1018.6 hPa West 3.2 km/h 3.2 km/h 93% 0.0 mm 0 W/m2
06:45 7.3 °C 6.4 °C 1018.6 hPa West 3.2 km/h 4.8 km/h 94% 0.0 mm 0 W/m2
06:50 7.3 °C 6.4 °C 1018.6 hPa SW 4.7 km/h 4.8 km/h 94% 0.0 mm 0 W/m2
06:55 7.3 °C 6.4 °C 1019.0 hPa Calm   1.6 km/h 94% 0.0 mm 0 W/m2
07:00 7.3 °C 6.4 °C 1019.0 hPa Calm   3.2 km/h 94% 0.0 mm 0 W/m2
07:05 7.3 °C 6.4 °C 1019.0 hPa Calm   3.2 km/h 94% 0.0 mm 0 W/m2
07:10 7.3 °C 6.4 °C 1019.0 hPa Calm     94% 0.0 mm 0 W/m2
07:15 7.3 °C 6.4 °C 1019.0 hPa Calm     94% 0.0 mm 0 W/m2
07:20 7.3 °C 6.4 °C 1019.3 hPa Calm     94% 0.0 mm 0 W/m2
07:25 7.3 °C 6.4 °C 1019.3 hPa Calm     94% 0.0 mm 0 W/m2
07:30 7.3 °C 6.4 °C 1019.3 hPa Calm     94% 0.0 mm 0 W/m2
07:35 7.3 °C 6.4 °C 1019.6 hPa Calm     94% 0.0 mm 0 W/m2
07:40 7.2 °C 6.3 °C 1019.6 hPa Calm     94% 0.0 mm 0 W/m2
07:45 7.2 °C 6.3 °C 1019.6 hPa Calm     94% 0.0 mm 0 W/m2
07:50 7.2 °C 6.3 °C 1019.6 hPa Calm     94% 0.0 mm 5 W/m2
07:55 7.2 °C 6.3 °C 1019.6 hPa Calm     94% 0.0 mm 7 W/m2
08:00 7.2 °C 6.3 °C 1020.0 hPa Calm     94% 0.0 mm 9 W/m2
08:05 7.2 °C 6.3 °C 1020.0 hPa Calm     94% 0.0 mm 11 W/m2
08:10 7.2 °C 6.3 °C 1020.0 hPa Calm     94% 0.0 mm 14 W/m2
08:15 7.2 °C 6.3 °C 1020.3 hPa Calm   1.6 km/h 94% 0.0 mm 21 W/m2
08:20 7.3 °C 6.4 °C 1020.3 hPa Calm     94% 0.0 mm 30 W/m2
08:25 7.3 °C 6.4 °C 1020.3 hPa Calm     94% 0.0 mm 40 W/m2
08:30 7.3 °C 6.4 °C 1020.7 hPa Calm     94% 0.0 mm 46 W/m2
08:35 7.3 °C 6.4 °C 1020.7 hPa West 1.4 km/h 3.2 km/h 94% 0.0 mm 47 W/m2
08:40 7.4 °C 6.5 °C 1020.7 hPa WNW 3.2 km/h 4.8 km/h 94% 0.0 mm 51 W/m2
08:45 7.4 °C 6.3 °C 1020.7 hPa WSW 4.7 km/h 6.4 km/h 93% 0.0 mm 56 W/m2
08:50 7.5 °C 6.4 °C 1021.0 hPa West 3.2 km/h 4.8 km/h 93% 0.0 mm 76 W/m2
08:55 7.6 °C 6.5 °C 1021.0 hPa West 3.2 km/h 6.4 km/h 93% 0.0 mm 84 W/m2
09:00 7.7 °C 6.5 °C 1021.3 hPa West 3.2 km/h 8 km/h 92% 0.0 mm 84 W/m2
09:05 7.8 °C 6.4 °C 1021.3 hPa WNW 3.2 km/h 4.8 km/h 91% 0.0 mm 90 W/m2
09:10 7.8 °C 6.4 °C 1021.3 hPa WSW 3.2 km/h 4.8 km/h 91% 0.0 mm 91 W/m2
09:15 7.9 °C 6.4 °C 1021.3 hPa NW 4.7 km/h 6.4 km/h 90% 0.0 mm 72 W/m2
09:20 8 °C 6.3 °C 1021.3 hPa WNW 4.7 km/h 6.4 km/h 89% 0.0 mm 72 W/m2
09:25 8.1 °C 6.4 °C 1021.3 hPa WNW 1.4 km/h 4.8 km/h 89% 0.0 mm 74 W/m2
09:30 8.1 °C 6.4 °C 1021.7 hPa WNW 4.7 km/h 8 km/h 89% 0.0 mm 60 W/m2
09:35 8.1 °C 6.4 °C 1021.7 hPa WNW 3.2 km/h 8 km/h 89% 0.0 mm 56 W/m2
09:40 8.1 °C 6.4 °C 1021.7 hPa WSW 3.2 km/h 6.4 km/h 89% 0.0 mm 58 W/m2
09:45 8.1 °C 6.2 °C 1021.7 hPa WSW 3.2 km/h 6.4 km/h 88% 0.0 mm 63 W/m2
09:50 8.1 °C 6.2 °C 1022.0 hPa NW 1.4 km/h 6.4 km/h 88% 0.0 mm 70 W/m2
09:55 8.2 °C 6.3 °C 1022.0 hPa WNW 3.2 km/h 6.4 km/h 88% 0.0 mm 74 W/m2
10:00 8.3 °C 6.4 °C 1022.0 hPa NW 4.7 km/h 4.8 km/h 88% 0.0 mm 86 W/m2
10:05 8.4 °C 6.5 °C 1022.4 hPa WNW 1.4 km/h 3.2 km/h 88% 0.0 mm 83 W/m2
10:10 8.6 °C 6.7 °C 1022.4 hPa WNW 3.2 km/h 4.8 km/h 88% 0.0 mm 86 W/m2
10:15 8.7 °C 6.7 °C 1022.4 hPa WSW 7.9 km/h 8 km/h 87% 0.0 mm 100 W/m2
10:20 8.8 °C 6.6 °C 1022.4 hPa NW 6.4 km/h 11.3 km/h 86% 0.0 mm 91 W/m2
10:25 8.9 °C 6.7 °C 1022.4 hPa West 3.2 km/h 9.7 km/h 86% 0.0 mm 86 W/m2
10:30 9 °C 6.8 °C 1022.7 hPa NW 3.2 km/h 3.2 km/h 86% 0.0 mm 107 W/m2
10:35 9.1 °C 6.9 °C 1022.7 hPa NW 3.2 km/h 4.8 km/h 86% 0.0 mm 104 W/m2
10:40 9.2 °C 7 °C 1022.7 hPa Calm   1.6 km/h 86% 0.0 mm 128 W/m2
10:45 9.3 °C 7.1 °C 1022.7 hPa WNW 1.4 km/h 3.2 km/h 86% 0.0 mm 120 W/m2
10:50 9.4 °C 7 °C 1023.0 hPa West 1.4 km/h 4.8 km/h 85% 0.0 mm 100 W/m2
10:55 9.4 °C 7 °C 1023.0 hPa WNW 3.2 km/h 6.4 km/h 85% 0.0 mm 98 W/m2
11:00 9.4 °C 6.8 °C 1023.0 hPa WNW 3.2 km/h 6.4 km/h 84% 0.0 mm 109 W/m2
11:05 9.4 °C 6.7 °C 1023.0 hPa WNW 3.2 km/h 4.8 km/h 83% 0.0 mm 109 W/m2
11:10 9.4 °C 6.7 °C 1023.4 hPa WNW 1.4 km/h 3.2 km/h 83% 0.0 mm 148 W/m2
11:15 9.5 °C 6.8 °C 1023.4 hPa WNW 1.4 km/h 4.8 km/h 83% 0.0 mm 142 W/m2
11:20 9.6 °C 6.9 °C 1023.4 hPa NW 1.4 km/h 6.4 km/h 83% 0.0 mm 163 W/m2
11:25 9.6 °C 6.5 °C 1023.4 hPa SW 4.7 km/h 11.3 km/h 81% 0.0 mm 134 W/m2
11:30 9.6 °C 6.7 °C 1023.4 hPa West 1.4 km/h 4.8 km/h 82% 0.0 mm 107 W/m2
11:35 9.6 °C 6.7 °C 1023.4 hPa Calm   8 km/h 82% 0.0 mm 77 W/m2
11:40 9.6 °C 6.7 °C 1023.4 hPa WNW 3.2 km/h 3.2 km/h 82% 0.0 mm 67 W/m2
11:45 9.6 °C 6.9 °C 1023.4 hPa Calm   4.8 km/h 83% 0.0 mm 83 W/m2
11:50 9.6 °C 6.7 °C 1023.4 hPa Calm   3.2 km/h 82% 0.0 mm 123 W/m2
11:55 9.7 °C 6.8 °C 1023.4 hPa Calm     82% 0.0 mm 158 W/m2
12:00 9.8 °C 6.7 °C 1023.4 hPa WNW 3.2 km/h 3.2 km/h 81% 0.0 mm 165 W/m2
12:05 9.9 °C 6.6 °C 1023.4 hPa WNW 1.4 km/h 3.2 km/h 80% 0.0 mm 162 W/m2
12:10 10.1 °C 6.6 °C 1023.4 hPa Calm     79% 0.0 mm 135 W/m2
12:15 10.2 °C 6.7 °C 1023.4 hPa Calm   3.2 km/h 79% 0.0 mm 81 W/m2
12:20 10.2 °C 6.5 °C 1023.4 hPa NW 1.4 km/h 1.6 km/h 78% 0.0 mm 97 W/m2
12:25 10.3 °C 6.4 °C 1023.4 hPa Calm   3.2 km/h 77% 0.0 mm 158 W/m2
12:30 10.3 °C 6.1 °C 1023.4 hPa Calm   3.2 km/h 75% 0.0 mm 105 W/m2
12:35 10.5 °C 6.4 °C 1023.4 hPa SE 1.4 km/h 1.6 km/h 76% 0.0 mm 81 W/m2
12:40 10.6 °C 6.4 °C 1023.4 hPa WNW 3.2 km/h 6.4 km/h 75% 0.0 mm 83 W/m2
12:45 10.6 °C 6.5 °C 1023.7 hPa NNW 3.2 km/h 6.4 km/h 76% 0.0 mm 120 W/m2
12:50 10.6 °C 6.2 °C 1023.7 hPa WNW 11.1 km/h 11.3 km/h 74% 0.0 mm 139 W/m2
12:55 10.7 °C 6.4 °C 1023.7 hPa WNW 6.4 km/h 8 km/h 75% 0.0 mm 135 W/m2
13:01 10.6 °C 6.4 °C 1023.7 hPa WNW 4.7 km/h 6.4 km/h 75% 0.0 mm 91 W/m2
13:06 10.5 °C 6.4 °C 1023.7 hPa NNW 6.4 km/h 11.3 km/h 76% 0.0 mm 56 W/m2
13:11 10.4 °C 6.2 °C 1023.7 hPa NW 4.7 km/h 9.7 km/h 75% 0.0 mm 53 W/m2
13:16 10.3 °C 6.3 °C 1023.7 hPa WNW 3.2 km/h 6.4 km/h 76% 0.0 mm 62 W/m2
13:21 10.3 °C 6.4 °C 1023.7 hPa NW 3.2 km/h 4.8 km/h 77% 0.0 mm 77 W/m2
13:26 10.3 °C 6.4 °C 1023.7 hPa WNW 3.2 km/h 6.4 km/h 77% 0.0 mm 95 W/m2
13:31 10.3 °C 6.4 °C 1023.7 hPa WNW 4.7 km/h 8 km/h 77% 0.0 mm 111 W/m2
13:36 10.4 °C 6.7 °C 1024.0 hPa WNW 6.4 km/h 6.4 km/h 78% 0.0 mm 120 W/m2
13:41 10.4 °C 6.7 °C 1024.0 hPa NW 3.2 km/h 4.8 km/h 78% 0.0 mm 120 W/m2
13:46 10.5 °C 6.8 °C 1024.0 hPa NW 1.4 km/h 8 km/h 78% 0.0 mm 105 W/m2
13:51 10.5 °C 6.6 °C 1024.0 hPa WNW 1.4 km/h 4.8 km/h 77% 0.0 mm 111 W/m2
13:56 10.6 °C 6.5 °C 1024.0 hPa North 1.4 km/h 4.8 km/h 76% 0.0 mm 114 W/m2
14:01 10.6 °C 6.7 °C 1024.0 hPa WNW 3.2 km/h 6.4 km/h 77% 0.0 mm 171 W/m2
14:06 10.6 °C 6.9 °C 1024.0 hPa West 3.2 km/h 11.3 km/h 78% 0.0 mm 156 W/m2
14:11 10.7 °C 6.8 °C 1024.0 hPa WNW 3.2 km/h 6.4 km/h 77% 0.0 mm 139 W/m2
14:16 10.8 °C 6.7 °C 1024.0 hPa NNE 1.4 km/h 6.4 km/h 76% 0.0 mm 134 W/m2
14:21 10.8 °C 6.5 °C 1024.0 hPa Calm   3.2 km/h 75% 0.0 mm 142 W/m2
14:26 10.8 °C 6.4 °C 1024.0 hPa WNW 3.2 km/h 6.4 km/h 74% 0.0 mm 162 W/m2
14:31 10.9 °C 6.4 °C 1024.0 hPa NNE 1.4 km/h 3.2 km/h 74% 0.0 mm 158 W/m2
14:36 10.9 °C 6.4 °C 1024.4 hPa North 1.4 km/h 8 km/h 74% 0.0 mm 137 W/m2
14:41 10.9 °C 6.3 °C 1024.4 hPa North 4.7 km/h 6.4 km/h 73% 0.0 mm 128 W/m2
14:46 11.1 °C 6.4 °C 1024.4 hPa NW 6.4 km/h 8 km/h 73% 0.0 mm 118 W/m2
14:51 11 °C 6.1 °C 1024.4 hPa West 3.2 km/h 9.7 km/h 72% 0.0 mm 107 W/m2
14:56 10.9 °C 6.3 °C 1024.4 hPa East 1.4 km/h 3.2 km/h 73% 0.0 mm 83 W/m2
15:01 10.9 °C 6.3 °C 1024.7 hPa Calm   9.7 km/h 73% 0.0 mm 67 W/m2
15:06 10.9 °C 6.3 °C 1024.7 hPa Calm   6.4 km/h 73% 0.0 mm 56 W/m2
15:11 10.8 °C 6.4 °C 1024.7 hPa NW 3.2 km/h 11.3 km/h 74% 0.0 mm 54 W/m2
15:16 10.8 °C 6.5 °C 1024.7 hPa WSW 6.4 km/h 11.3 km/h 75% 0.0 mm 56 W/m2
15:21 10.6 °C 6.4 °C 1024.7 hPa WNW 4.7 km/h 6.4 km/h 75% 0.0 mm 60 W/m2
15:26 10.6 °C 6.4 °C 1024.7 hPa WNW 13 km/h 12.9 km/h 75% 0.0 mm 54 W/m2
15:31 10.5 °C 6.3 °C 1025.1 hPa West 3.2 km/h 11.3 km/h 75% 0.0 mm 51 W/m2
15:36 10.5 °C 6.3 °C 1025.1 hPa NW 1.4 km/h 3.2 km/h 75% 0.0 mm 42 W/m2
15:41 10.5 °C 6.3 °C 1025.1 hPa North 1.4 km/h 8 km/h 75% 0.0 mm 39 W/m2
15:46 10.5 °C 6.4 °C 1025.1 hPa NW 3.2 km/h 4.8 km/h 76% 0.0 mm 39 W/m2
15:51 10.5 °C 6.4 °C 1025.1 hPa NW 3.2 km/h 6.4 km/h 76% 0.0 mm 44 W/m2
15:56 10.5 °C 6.4 °C 1025.1 hPa Calm   3.2 km/h 76% 0.0 mm 42 W/m2
16:01 10.4 °C 6.4 °C 1025.1 hPa NW 3.2 km/h 6.4 km/h 76% 0.0 mm 40 W/m2
16:06 10.4 °C 6.2 °C 1025.1 hPa Calm   1.6 km/h 75% 0.0 mm 35 W/m2
16:36 10.1 °C 6.4 °C 1025.4 hPa Calm   3.2 km/h 78% 0.0 mm 26 W/m2
16:41 10 °C 6.3 °C 1025.4 hPa Calm     78% 0.0 mm 21 W/m2
16:46 9.8 °C 6.3 °C 1025.4 hPa West 1.4 km/h 3.2 km/h 79% 0.0 mm 18 W/m2
16:51 9.7 °C 6.4 °C 1025.7 hPa Calm     80% 0.0 mm 12 W/m2
16:56 9.6 °C 6.5 °C 1025.7 hPa WNW 1.4 km/h 3.2 km/h 81% 0.0 mm 11 W/m2
17:01 9.4 °C 6.3 °C 1025.7 hPa Calm   1.6 km/h 81% 0.0 mm 7 W/m2
17:06 9.3 °C 6.4 °C 1025.7 hPa Calm   3.2 km/h 82% 0.0 mm 5 W/m2
17:11 9.2 °C 6.3 °C 1025.7 hPa WSW 3.2 km/h 4.8 km/h 82% 0.0 mm 0 W/m2
17:16 9.1 °C 6.2 °C 1025.7 hPa WSW 1.4 km/h 3.2 km/h 82% 0.0 mm 0 W/m2
17:21 9.1 °C 6.2 °C 1025.7 hPa WSW 1.4 km/h 4.8 km/h 82% 0.0 mm 0 W/m2
17:26 8.9 °C 6.2 °C 1025.7 hPa Calm   1.6 km/h 83% 0.0 mm 0 W/m2
17:31 8.9 °C 6.2 °C 1025.7 hPa Calm   1.6 km/h 83% 0.0 mm 0 W/m2
17:36 8.8 °C 6.2 °C 1025.7 hPa Calm     84% 0.0 mm 0 W/m2
17:41 8.7 °C 6.1 °C 1025.7 hPa Calm     84% 0.0 mm 0 W/m2
17:46 8.6 °C 6.2 °C 1025.7 hPa Calm     85% 0.0 mm 0 W/m2
17:51 8.4 °C 6.2 °C 1026.1 hPa WSW 4.7 km/h 6.4 km/h 86% 0.0 mm 0 W/m2
17:56 8.3 °C 6.1 °C 1026.1 hPa West 4.7 km/h 6.4 km/h 86% 0.0 mm 0 W/m2
18:01 8.3 °C 6.1 °C 1026.1 hPa WNW 1.4 km/h 4.8 km/h 86% 0.0 mm 0 W/m2
18:06 8.3 °C 6.3 °C 1026.1 hPa WSW 4.7 km/h 4.8 km/h 87% 0.0 mm 0 W/m2
18:11 8.3 °C 6.1 °C 1026.1 hPa Calm   3.2 km/h 86% 0.0 mm 0 W/m2
18:16 8.3 °C 6.1 °C 1026.4 hPa Calm   1.6 km/h 86% 0.0 mm 0 W/m2
18:21 8.2 °C 6 °C 1026.4 hPa Calm     86% 0.0 mm 0 W/m2
18:26 8.1 °C 6.1 °C 1026.4 hPa West 1.4 km/h 3.2 km/h 87% 0.0 mm 0 W/m2
18:31 8 °C 6 °C 1026.4 hPa West 3.2 km/h 4.8 km/h 87% 0.0 mm 0 W/m2
18:36 8.1 °C 6.2 °C 1026.4 hPa Calm   3.2 km/h 88% 0.0 mm 0 W/m2
18:41 8.2 °C 6.2 °C 1026.8 hPa Calm   3.2 km/h 87% 0.0 mm 0 W/m2
18:46 8.2 °C 6.2 °C 1026.8 hPa Calm   1.6 km/h 87% 0.0 mm 0 W/m2
18:51 8.1 °C 6.2 °C 1026.8 hPa Calm   1.6 km/h 88% 0.0 mm 0 W/m2
18:56 8 °C 6.1 °C 1026.8 hPa Calm   1.6 km/h 88% 0.0 mm 0 W/m2
19:01 7.9 °C 6 °C 1027.1 hPa WSW 1.4 km/h 3.2 km/h 88% 0.0 mm 0 W/m2
19:06 7.9 °C 6.2 °C 1027.1 hPa West 3.2 km/h 3.2 km/h 89% 0.0 mm 0 W/m2
19:11 7.9 °C 6.2 °C 1027.1 hPa West 1.4 km/h 6.4 km/h 89% 0.0 mm 0 W/m2
19:16 7.9 °C 6.2 °C 1027.1 hPa Calm   3.2 km/h 89% 0.0 mm 0 W/m2
19:21 7.8 °C 6.1 °C 1027.1 hPa West 3.2 km/h 6.4 km/h 89% 0.0 mm 0 W/m2
19:26 7.8 °C 6.3 °C 1027.1 hPa West 3.2 km/h 4.8 km/h 90% 0.0 mm 0 W/m2
19:31 7.8 °C 6.1 °C 1027.1 hPa WNW 4.7 km/h 6.4 km/h 89% 0.0 mm 0 W/m2
19:36 8 °C 6.3 °C 1027.4 hPa West 4.7 km/h 6.4 km/h 89% 0.0 mm 0 W/m2
19:41 8.1 °C 6.2 °C 1027.4 hPa West 3.2 km/h 4.8 km/h 88% 0.0 mm 0 W/m2
19:46 8.1 °C 6.2 °C 1027.4 hPa West 4.7 km/h 6.4 km/h 88% 0.0 mm 0 W/m2
19:51 8.1 °C 6.2 °C 1027.4 hPa West 1.4 km/h 3.2 km/h 88% 0.0 mm 0 W/m2
19:56 7.9 °C 6 °C 1027.4 hPa WNW 3.2 km/h 6.4 km/h 88% 0.0 mm 0 W/m2
20:01 7.6 °C 5.7 °C 1027.4 hPa WNW 6.4 km/h 6.4 km/h 88% 0.0 mm 0 W/m2
20:06 7.5 °C 5.8 °C 1027.4 hPa WSW 4.7 km/h 6.4 km/h 89% 0.0 mm 0 W/m2
20:11 7.5 °C 6 °C 1027.4 hPa WNW 3.2 km/h 6.4 km/h 90% 0.0 mm 0 W/m2
20:16 7.6 °C 5.9 °C 1027.4 hPa WNW 1.4 km/h 4.8 km/h 89% 0.0 mm 0 W/m2
20:21 7.7 °C 6 °C 1027.4 hPa West 3.2 km/h 4.8 km/h 89% 0.0 mm 0 W/m2
20:26 7.7 °C 6 °C 1027.4 hPa WSW 1.4 km/h 6.4 km/h 89% 0.0 mm 0 W/m2
20:32 7.6 °C 5.9 °C 1027.4 hPa Calm     89% 0.0 mm 0 W/m2
20:37 7.4 °C 5.7 °C 1027.4 hPa Calm   6.4 km/h 89% 0.0 mm 0 W/m2
20:42 7.3 °C 5.6 °C 1027.4 hPa West 4.7 km/h 4.8 km/h 89% 0.0 mm 0 W/m2
20:47 7.2 °C 5.7 °C 1027.4 hPa Calm   1.6 km/h 90% 0.0 mm 0 W/m2
20:52 6.9 °C 5.2 °C 1027.4 hPa Calm     89% 0.0 mm 0 W/m2
20:57 6.7 °C 5.2 °C 1027.4 hPa Calm   1.6 km/h 90% 0.0 mm 0 W/m2
21:02 6.5 °C 5 °C 1027.4 hPa Calm     90% 0.0 mm 0 W/m2
21:07 6.3 °C 4.8 °C 1027.8 hPa Calm     90% 0.0 mm 0 W/m2
21:12 6.2 °C 4.8 °C 1027.8 hPa Calm     91% 0.0 mm 0 W/m2
21:17 6.1 °C 4.7 °C 1027.8 hPa Calm     91% 0.0 mm 0 W/m2
21:22 6 °C 4.8 °C 1027.8 hPa Calm     92% 0.0 mm 0 W/m2
21:27 5.9 °C 4.7 °C 1027.8 hPa Calm     92% 0.0 mm 0 W/m2
21:32 5.8 °C 4.6 °C 1027.8 hPa Calm     92% 0.0 mm 0 W/m2
21:37 5.8 °C 4.6 °C 1028.1 hPa Calm     92% 0.0 mm 0 W/m2
21:42 5.7 °C 4.7 °C 1027.8 hPa Calm     93% 0.0 mm 0 W/m2
21:47 5.7 °C 4.7 °C 1028.1 hPa Calm     93% 0.0 mm 0 W/m2
21:52 5.7 °C 4.7 °C 1028.1 hPa Calm     93% 0.0 mm 0 W/m2
21:57 5.7 °C 4.8 °C 1028.1 hPa Calm     94% 0.0 mm 0 W/m2
22:02 5.7 °C 4.8 °C 1028.1 hPa Calm     94% 0.0 mm 0 W/m2
22:07 5.7 °C 4.8 °C 1028.5 hPa Calm     94% 0.0 mm 0 W/m2
22:12 5.8 °C 4.9 °C 1028.5 hPa Calm     94% 0.0 mm 0 W/m2
22:17 5.8 °C 4.9 °C 1028.5 hPa Calm     94% 0.0 mm 0 W/m2
22:22 5.8 °C 4.9 °C 1028.5 hPa Calm     94% 0.0 mm 0 W/m2
22:27 5.8 °C 4.9 °C 1028.5 hPa Calm     94% 0.0 mm 0 W/m2
22:32 5.9 °C 5 °C 1028.5 hPa Calm     94% 0.0 mm 0 W/m2
22:37 5.9 °C 5 °C 1028.5 hPa Calm     94% 0.0 mm 0 W/m2
22:42 5.9 °C 5.2 °C 1028.5 hPa Calm     95% 0.0 mm 0 W/m2
22:47 6 °C 5.3 °C 1028.5 hPa Calm     95% 0.0 mm 0 W/m2
22:52 6 °C 5.3 °C 1028.5 hPa Calm     95% 0.0 mm 0 W/m2
22:57 6.1 °C 5.4 °C 1028.5 hPa Calm     95% 0.0 mm 0 W/m2
23:02 6.1 °C 5.4 °C 1028.8 hPa Calm     95% 0.0 mm 0 W/m2
23:07 6.2 °C 5.5 °C 1028.8 hPa Calm     95% 0.0 mm 0 W/m2
23:12 6.2 °C 5.5 °C 1028.8 hPa Calm     95% 0.0 mm 0 W/m2
23:17 6.2 °C 5.5 °C 1028.8 hPa Calm     95% 0.0 mm 0 W/m2
23:22 6.2 °C 5.5 °C 1028.8 hPa West 1.4 km/h 3.2 km/h 95% 0.0 mm 0 W/m2
23:27 6.3 °C 5.6 °C 1028.8 hPa WSW 3.2 km/h 4.8 km/h 95% 0.0 mm 0 W/m2
23:32 6.5 °C 5.8 °C 1028.8 hPa West 1.4 km/h 6.4 km/h 95% 0.0 mm 0 W/m2
23:37 6.7 °C 6 °C 1028.8 hPa Calm   1.6 km/h 95% 0.0 mm 0 W/m2
23:42 6.8 °C 6.1 °C 1028.8 hPa Calm   6.4 km/h 95% 0.0 mm 0 W/m2
23:47 6.8 °C 6.1 °C 1028.8 hPa West 3.2 km/h 3.2 km/h 95% 0.0 mm 0 W/m2
23:52 6.9 °C 6.2 °C 1028.8 hPa Calm     95% 0.0 mm 0 W/m2
23:57 6.9 °C 6.2 °C 1028.8 hPa Calm     95% 0.0 mm 0 W/m2
Juneau County Weather
Compliments of Weather Underground - 4 mb